createdAt,value
2017-09-06T00:01:33.933Z,20.30
2017-09-06T00:03:59.955Z,21.57
2017-09-06T00:06:26.049Z,18.73
2017-09-06T00:08:52.074Z,19.63
2017-09-06T00:11:18.122Z,19.10
2017-09-06T00:13:44.172Z,18.53
2017-09-06T00:16:10.205Z,17.90
2017-09-06T00:18:36.236Z,19.93
2017-09-06T00:21:02.277Z,17.63
2017-09-06T00:23:28.342Z,17.67
2017-09-06T00:25:54.399Z,15.80
2017-09-06T00:28:20.458Z,16.70
2017-09-06T00:30:46.491Z,19.57
2017-09-06T00:33:12.529Z,18.40
2017-09-06T00:35:38.554Z,17.43
2017-09-06T00:38:04.587Z,17.90
2017-09-06T00:40:30.633Z,17.83
2017-09-06T00:42:56.668Z,17.57
2017-09-06T00:45:22.743Z,18.70
2017-09-06T00:47:48.816Z,16.67
2017-09-06T00:50:14.837Z,18.63
2017-09-06T00:52:40.901Z,16.17
2017-09-06T00:55:06.960Z,16.57
2017-09-06T00:57:32.994Z,15.00
2017-09-06T00:59:59.040Z,16.20
2017-09-06T01:02:25.077Z,16.37
2017-09-06T01:04:51.116Z,16.30
2017-09-06T01:07:17.160Z,16.37
2017-09-06T01:09:43.212Z,16.03
2017-09-06T01:12:09.242Z,16.60
2017-09-06T01:14:35.296Z,16.23
2017-09-06T01:17:01.330Z,16.50
2017-09-06T01:19:27.373Z,17.17
2017-09-06T01:21:53.397Z,18.10
2017-09-06T01:24:19.421Z,17.47
2017-09-06T01:26:45.449Z,18.97
2017-09-06T01:29:11.505Z,18.57
2017-09-06T01:31:37.551Z,19.93
2017-09-06T01:34:03.598Z,19.37
2017-09-06T01:36:29.637Z,19.60
2017-09-06T01:38:55.749Z,19.33
2017-09-06T01:41:21.801Z,18.23
2017-09-06T01:43:47.852Z,18.67
2017-09-06T01:46:13.906Z,19.10
2017-09-06T01:48:39.953Z,18.57
2017-09-06T01:51:05.997Z,18.37
2017-09-06T01:53:32.056Z,18.07
2017-09-06T01:55:58.092Z,19.50
2017-09-06T01:58:24.132Z,18.10
2017-09-06T02:00:50.176Z,17.60
2017-09-06T02:03:16.234Z,18.37
2017-09-06T02:05:42.270Z,20.13
2017-09-06T02:08:08.303Z,18.20
2017-09-06T02:10:34.315Z,19.43
2017-09-06T02:13:00.366Z,16.77
2017-09-06T02:15:26.389Z,22.10
2017-09-06T02:17:52.413Z,20.23
2017-09-06T02:20:18.445Z,19.87
2017-09-06T02:22:44.502Z,19.20
2017-09-06T02:25:10.544Z,19.70
2017-09-06T02:27:36.584Z,19.90
2017-09-06T02:30:02.627Z,20.77
2017-09-06T02:32:28.665Z,19.03
2017-09-06T02:34:54.698Z,21.87
2017-09-06T02:37:20.726Z,19.20
2017-09-06T02:39:46.753Z,19.13
2017-09-06T02:42:12.769Z,19.67
2017-09-06T02:44:38.839Z,20.70
2017-09-06T02:47:04.830Z,18.77
2017-09-06T02:49:30.865Z,18.50
2017-09-06T02:51:56.888Z,20.67
2017-09-06T02:54:22.968Z,20.07
2017-09-06T02:56:49.021Z,21.23
2017-09-06T02:59:15.058Z,20.87
2017-09-06T03:01:41.080Z,20.50
2017-09-06T03:04:07.106Z,19.60
2017-09-06T03:06:33.158Z,19.90
2017-09-06T03:08:59.193Z,23.60
2017-09-06T03:11:25.233Z,20.80
2017-09-06T03:13:51.293Z,20.53
2017-09-06T03:16:17.352Z,20.67
2017-09-06T03:18:43.367Z,23.80
2017-09-06T03:21:09.406Z,21.70
2017-09-06T03:23:35.442Z,25.87
2017-09-06T03:26:01.480Z,22.93
2017-09-06T03:28:27.568Z,24.33
2017-09-06T03:30:53.587Z,26.80
2017-09-06T03:33:19.614Z,28.10
2017-09-06T03:35:45.641Z,25.17
2017-09-06T03:38:11.666Z,27.97
2017-09-06T03:40:37.685Z,26.83
2017-09-06T03:43:03.712Z,28.80
2017-09-06T03:45:29.748Z,25.83
2017-09-06T03:47:55.789Z,26.70
2017-09-06T03:50:21.817Z,27.83
2017-09-06T03:52:47.849Z,28.83
2017-09-06T03:55:13.901Z,26.03
2017-09-06T03:57:39.952Z,29.17
2017-09-06T04:00:06.016Z,28.47
2017-09-06T04:02:32.049Z,28.70
2017-09-06T04:04:58.145Z,30.30
2017-09-06T04:07:24.203Z,32.63
2017-09-06T04:09:50.213Z,34.30
2017-09-06T04:12:16.221Z,36.67
2017-09-06T04:14:42.290Z,37.20
2017-09-06T04:17:08.356Z,36.30
2017-09-06T04:19:34.389Z,37.40
2017-09-06T04:22:00.459Z,37.90
2017-09-06T04:24:26.493Z,34.00
2017-09-06T04:26:53.296Z,30.60
2017-09-06T04:29:19.325Z,31.57
2017-09-06T04:31:45.362Z,30.03
2017-09-06T04:34:11.417Z,26.07
2017-09-06T04:36:37.466Z,28.47
2017-09-06T04:39:03.532Z,29.20
2017-09-06T04:41:29.599Z,23.33
2017-09-06T04:43:55.672Z,25.80
2017-09-06T04:46:21.709Z,27.40
2017-09-06T04:48:47.739Z,25.67
2017-09-06T04:51:13.789Z,27.80
2017-09-06T04:53:39.857Z,25.17
2017-09-06T04:56:05.924Z,25.77
2017-09-06T04:58:31.962Z,27.53
2017-09-06T05:00:58.027Z,26.97
2017-09-06T05:03:24.070Z,25.77
2017-09-06T05:05:50.130Z,27.07
2017-09-06T05:08:16.184Z,31.43
2017-09-06T05:10:42.257Z,24.87
2017-09-06T05:13:08.301Z,22.63
2017-09-06T05:15:34.345Z,23.20
2017-09-06T05:18:00.389Z,22.33
2017-09-06T05:20:26.470Z,23.40
2017-09-06T05:22:52.531Z,25.80
2017-09-06T05:25:18.617Z,25.97
2017-09-06T05:27:44.686Z,25.97
2017-09-06T05:30:10.797Z,28.90
2017-09-06T05:32:36.859Z,28.00
2017-09-06T05:35:02.889Z,29.67
2017-09-06T05:37:28.925Z,28.37
2017-09-06T05:39:54.966Z,30.40
2017-09-06T05:42:21.022Z,28.53
2017-09-06T05:44:47.057Z,27.57
2017-09-06T05:47:13.105Z,32.67
2017-09-06T05:49:39.154Z,32.03
2017-09-06T05:52:06.333Z,31.83
2017-09-06T05:54:32.453Z,32.53
2017-09-06T05:56:58.488Z,29.33
2017-09-06T05:59:24.530Z,30.50
2017-09-06T06:01:50.569Z,28.40
2017-09-06T06:04:16.632Z,28.40
2017-09-06T06:06:42.681Z,25.50
2017-09-06T06:09:08.696Z,21.37
2017-09-06T06:11:34.766Z,25.93
2017-09-06T06:14:00.801Z,21.57
2017-09-06T06:16:26.858Z,19.87
2017-09-06T06:18:52.901Z,18.87
2017-09-06T06:21:18.934Z,14.43
2017-09-06T06:23:44.985Z,11.63
2017-09-06T06:26:11.102Z,11.00
2017-09-06T06:28:37.149Z,9.60
2017-09-06T06:31:03.173Z,10.67
2017-09-06T06:33:29.223Z,10.50
2017-09-06T06:35:55.262Z,12.30
2017-09-06T06:38:21.306Z,14.77
2017-09-06T06:40:47.336Z,12.33
2017-09-06T06:43:13.455Z,14.23
2017-09-06T06:45:39.477Z,14.50
2017-09-06T06:48:05.516Z,14.33
2017-09-06T06:50:31.582Z,16.43
2017-09-06T06:52:57.625Z,16.33
2017-09-06T06:55:23.676Z,15.10
2017-09-06T06:57:49.705Z,15.00
2017-09-06T07:00:15.759Z,15.33
2017-09-06T07:02:41.825Z,14.13
2017-09-06T07:05:07.866Z,14.63
2017-09-06T07:07:33.916Z,15.30
2017-09-06T07:09:59.960Z,14.87
2017-09-06T07:12:25.981Z,15.07
2017-09-06T07:14:52.013Z,15.13
2017-09-06T07:17:18.049Z,13.60
2017-09-06T07:19:44.112Z,14.70
2017-09-06T07:22:10.157Z,14.93
2017-09-06T07:24:36.193Z,16.57
2017-09-06T07:27:02.473Z,15.10
2017-09-06T07:29:28.501Z,14.83
2017-09-06T07:31:54.566Z,14.73
2017-09-06T07:34:20.601Z,16.37
2017-09-06T07:36:46.644Z,17.37
2017-09-06T07:39:12.690Z,16.73
2017-09-06T07:41:38.718Z,16.93
2017-09-06T07:44:04.729Z,17.30
2017-09-06T07:46:30.758Z,17.30
2017-09-06T07:48:56.794Z,16.87
2017-09-06T07:51:22.845Z,19.30
2017-09-06T07:53:48.897Z,19.40
2017-09-06T07:56:14.950Z,20.80
2017-09-06T07:58:40.997Z,21.40
2017-09-06T08:01:07.102Z,21.13
2017-09-06T08:03:33.156Z,23.30
2017-09-06T08:05:59.196Z,21.30
2017-09-06T08:08:25.228Z,25.60
2017-09-06T08:10:51.250Z,27.00
2017-09-06T08:13:17.332Z,27.60
2017-09-06T08:15:43.373Z,26.40
2017-09-06T08:18:09.413Z,29.20
2017-09-06T08:20:35.469Z,27.47
2017-09-06T08:23:01.510Z,28.00
2017-09-06T08:25:27.570Z,24.53
2017-09-06T08:27:53.593Z,25.33
2017-09-06T08:30:19.635Z,26.57
2017-09-06T08:32:45.663Z,27.07
2017-09-06T08:35:11.697Z,26.03
2017-09-06T08:37:37.738Z,25.67
2017-09-06T08:40:03.796Z,25.80
2017-09-06T08:42:29.825Z,26.00
2017-09-06T08:44:55.866Z,28.03
2017-09-06T08:47:21.893Z,25.13
2017-09-06T08:49:47.955Z,24.00
2017-09-06T08:52:13.989Z,25.23
2017-09-06T08:54:40.043Z,27.40
2017-09-06T08:57:06.106Z,20.83
2017-09-06T08:59:32.125Z,18.77
2017-09-06T09:01:58.217Z,17.60
2017-09-06T09:04:24.271Z,18.33
2017-09-06T09:06:50.349Z,20.97
2017-09-06T09:09:16.510Z,21.63
2017-09-06T09:11:42.548Z,17.80
2017-09-06T09:14:08.594Z,17.87
2017-09-06T09:16:34.668Z,17.50
2017-09-06T09:19:00.704Z,16.60
2017-09-06T09:21:26.739Z,18.63
2017-09-06T09:23:52.783Z,17.43
2017-09-06T09:26:18.862Z,19.23
2017-09-06T09:28:44.942Z,18.50
2017-09-06T09:31:10.990Z,19.63
2017-09-06T09:33:37.038Z,19.13
2017-09-06T09:36:03.061Z,17.63
2017-09-06T09:38:29.090Z,16.73
2017-09-06T09:40:55.196Z,15.70
2017-09-06T09:43:21.240Z,16.03
2017-09-06T09:45:47.265Z,17.03
2017-09-06T09:48:13.322Z,18.47
2017-09-06T09:50:39.348Z,18.80
2017-09-06T09:53:05.389Z,19.00
2017-09-06T09:55:31.426Z,20.23
2017-09-06T09:57:57.474Z,19.47
2017-09-06T10:00:23.490Z,20.30
2017-09-06T10:02:49.549Z,22.73
2017-09-06T10:05:15.590Z,20.20
2017-09-06T10:07:41.657Z,18.13
2017-09-06T10:10:07.690Z,19.23
2017-09-06T10:12:33.737Z,18.70
2017-09-06T10:14:59.769Z,20.10
2017-09-06T10:17:26.213Z,20.30
2017-09-06T10:19:52.254Z,22.63
2017-09-06T10:22:18.288Z,23.30
2017-09-06T10:24:44.365Z,22.43
2017-09-06T10:27:10.441Z,22.30
2017-09-06T10:29:36.514Z,24.40
2017-09-06T10:32:02.551Z,24.80
2017-09-06T10:34:28.622Z,24.07
2017-09-06T10:36:54.657Z,23.30
2017-09-06T10:39:20.690Z,24.03
2017-09-06T10:41:46.725Z,26.37
2017-09-06T10:44:12.760Z,29.37
2017-09-06T10:46:38.778Z,29.53
2017-09-06T10:49:04.817Z,24.07
2017-09-06T10:51:30.861Z,30.70
2017-09-06T10:53:56.909Z,29.13
2017-09-06T10:56:22.968Z,27.67
2017-09-06T10:58:48.999Z,31.83
2017-09-06T11:01:15.045Z,33.70
2017-09-06T11:03:41.089Z,36.70
2017-09-06T11:06:07.126Z,36.97
2017-09-06T11:08:33.162Z,35.97
2017-09-06T11:10:59.173Z,34.70
2017-09-06T11:13:25.205Z,36.03
2017-09-06T11:15:51.260Z,33.57
2017-09-06T11:18:17.271Z,35.23
2017-09-06T11:20:43.309Z,33.50
2017-09-06T11:23:09.350Z,29.10
2017-09-06T11:25:35.407Z,33.50
2017-09-06T11:28:01.513Z,33.20
2017-09-06T11:30:27.549Z,33.30
2017-09-06T11:32:53.608Z,35.07
2017-09-06T11:35:19.650Z,32.90
2017-09-06T11:37:45.688Z,30.93
2017-09-06T11:40:11.756Z,27.47
2017-09-06T11:42:37.811Z,28.80
2017-09-06T11:45:03.842Z,29.00
2017-09-06T11:47:29.897Z,27.10
2017-09-06T11:49:55.945Z,29.47
2017-09-06T11:52:22.014Z,27.57
2017-09-06T11:54:48.077Z,28.67
2017-09-06T11:57:14.115Z,26.50
2017-09-06T11:59:40.161Z,24.07
2017-09-06T12:02:07.979Z,18.03
2017-09-06T12:04:35.796Z,16.13
2017-09-06T12:07:03.629Z,15.27
2017-09-06T12:09:31.488Z,13.50
2017-09-06T12:11:59.317Z,16.00
2017-09-06T12:14:27.142Z,15.87
2017-09-06T12:16:54.978Z,16.37
2017-09-06T12:19:22.771Z,17.40
2017-09-06T12:21:50.590Z,20.13
2017-09-06T12:24:18.401Z,13.70
2017-09-06T12:26:46.198Z,10.73
2017-09-06T12:29:14.036Z,9.17
2017-09-06T12:31:41.900Z,7.83
2017-09-06T12:34:09.706Z,9.63
2017-09-06T12:36:37.497Z,8.10
2017-09-06T12:39:05.274Z,8.07
2017-09-06T12:41:33.062Z,8.27
2017-09-06T12:44:00.884Z,8.43
2017-09-06T12:46:28.661Z,7.90
2017-09-06T12:48:56.761Z,8.10
2017-09-06T12:51:24.628Z,8.93
2017-09-06T12:53:50.649Z,6.93
2017-09-06T12:56:16.666Z,6.20
2017-09-06T12:58:42.681Z,5.00
2017-09-06T13:01:08.691Z,4.50
2017-09-06T13:03:34.708Z,4.63
2017-09-06T13:06:00.738Z,6.30
2017-09-06T13:08:26.765Z,4.93
2017-09-06T13:10:52.823Z,4.93
2017-09-06T13:13:18.867Z,5.47
2017-09-06T13:15:44.901Z,5.47
2017-09-06T13:18:10.929Z,4.10
2017-09-06T13:20:36.934Z,4.90
2017-09-06T13:23:02.982Z,4.43
2017-09-06T13:25:29.141Z,4.43
2017-09-06T13:27:55.174Z,4.07
2017-09-06T13:30:21.197Z,4.00
2017-09-06T13:32:47.213Z,2.80
2017-09-06T13:35:13.246Z,2.10
2017-09-06T13:37:41.060Z,2.20
2017-09-06T13:40:08.868Z,1.90
2017-09-06T13:42:36.387Z,3.43
2017-09-06T13:45:02.453Z,1.73
2017-09-06T13:47:28.479Z,1.80
2017-09-06T13:49:54.512Z,2.90
2017-09-06T13:52:20.534Z,1.27
2017-09-06T13:54:49.621Z,1.50
2017-09-06T13:57:15.652Z,1.43
2017-09-06T13:59:41.694Z,2.27
2017-09-06T14:02:07.705Z,2.00
2017-09-06T14:04:33.719Z,1.60
2017-09-06T14:06:59.746Z,1.70
2017-09-06T14:09:25.761Z,1.30
2017-09-06T14:11:51.774Z,1.60
2017-09-06T14:14:17.782Z,1.87
2017-09-06T14:16:43.819Z,2.13
2017-09-06T14:19:09.958Z,1.83
2017-09-06T14:21:35.999Z,2.90
2017-09-06T14:24:02.029Z,2.53
2017-09-06T14:26:28.033Z,3.10
2017-09-06T14:28:54.029Z,3.30
2017-09-06T14:31:20.053Z,3.37
2017-09-06T14:33:46.105Z,3.70
2017-09-06T14:36:12.126Z,3.50
2017-09-06T14:38:38.143Z,3.17
2017-09-06T14:41:04.166Z,3.93
2017-09-06T14:43:30.188Z,3.60
2017-09-06T14:45:56.218Z,3.43
2017-09-06T14:48:22.237Z,3.70
2017-09-06T14:50:48.252Z,3.90
2017-09-06T14:53:14.270Z,4.83
2017-09-06T14:55:40.311Z,3.50
2017-09-06T14:58:06.350Z,3.80
2017-09-06T15:00:32.354Z,3.20
2017-09-06T15:02:58.366Z,3.40
2017-09-06T15:05:24.406Z,3.33
2017-09-06T15:07:50.421Z,3.03
2017-09-06T15:10:16.450Z,3.60
2017-09-06T15:12:42.462Z,3.40
2017-09-06T15:15:08.845Z,3.13
2017-09-06T15:17:34.894Z,3.60
2017-09-06T15:20:00.946Z,2.90
2017-09-06T15:22:27.046Z,3.80
2017-09-06T15:24:53.109Z,3.03
2017-09-06T15:27:19.253Z,3.23
2017-09-06T15:29:45.357Z,3.40
2017-09-06T15:32:11.362Z,2.93
2017-09-06T15:34:37.409Z,3.10
2017-09-06T15:37:03.681Z,11.20
2017-09-06T15:39:33.343Z,24.43
2017-09-06T15:41:59.473Z,6.80
2017-09-06T15:44:25.521Z,6.20
2017-09-06T15:46:51.529Z,4.30
2017-09-06T15:49:17.569Z,3.77
2017-09-06T15:51:43.589Z,3.60
2017-09-06T15:54:09.590Z,2.70
2017-09-06T15:56:35.638Z,2.77
2017-09-06T15:59:01.665Z,3.97
2017-09-06T16:01:27.696Z,3.70
2017-09-06T16:03:53.728Z,3.50
2017-09-06T16:06:19.764Z,3.23
2017-09-06T16:08:45.791Z,4.93
2017-09-06T16:11:11.801Z,3.50
2017-09-06T16:13:38.689Z,5.87
2017-09-06T16:16:05.458Z,4.97
2017-09-06T16:18:31.661Z,21.67
2017-09-06T16:20:57.740Z,5.40
2017-09-06T16:23:23.805Z,3.70
2017-09-06T16:25:49.857Z,4.10
2017-09-06T16:28:15.925Z,4.20
2017-09-06T16:30:41.954Z,3.10
2017-09-06T16:33:08.003Z,3.57
2017-09-06T16:35:34.049Z,5.20
2017-09-06T16:38:00.089Z,3.70
2017-09-06T16:40:26.127Z,4.33
2017-09-06T16:42:52.162Z,6.40
2017-09-06T16:45:18.193Z,4.60
2017-09-06T16:47:44.270Z,5.10
2017-09-06T16:50:10.362Z,4.70
2017-09-06T16:52:36.393Z,5.30
2017-09-06T16:55:02.437Z,3.67
2017-09-06T16:57:28.490Z,6.60
2017-09-06T16:59:54.561Z,4.17
2017-09-06T17:02:20.644Z,4.30
2017-09-06T17:04:46.739Z,4.60
2017-09-06T17:07:12.786Z,5.40
2017-09-06T17:09:40.705Z,4.80
2017-09-06T17:12:06.800Z,5.77
2017-09-06T17:14:32.900Z,4.53
2017-09-06T17:16:58.949Z,5.23
2017-09-06T17:19:25.002Z,5.23
2017-09-06T17:21:51.113Z,4.37
2017-09-06T17:24:17.268Z,4.60
2017-09-06T17:26:43.295Z,5.30
2017-09-06T17:29:09.362Z,5.10
2017-09-06T17:31:35.384Z,5.33
2017-09-06T17:34:01.401Z,5.50
2017-09-06T17:36:27.413Z,5.17
2017-09-06T17:38:53.543Z,5.10
2017-09-06T17:41:19.618Z,4.67
2017-09-06T17:43:45.826Z,8.60
2017-09-06T17:46:11.911Z,5.97
2017-09-06T17:48:37.950Z,5.60
2017-09-06T17:51:03.998Z,6.30
2017-09-06T17:53:30.038Z,5.80
2017-09-06T17:55:56.087Z,6.17
2017-09-06T17:58:22.149Z,7.80
2017-09-06T18:00:48.186Z,6.63
2017-09-06T18:03:14.254Z,6.60
2017-09-06T18:05:40.278Z,6.20
2017-09-06T18:08:06.324Z,5.70
2017-09-06T18:10:32.439Z,5.53
2017-09-06T18:12:58.516Z,6.30
2017-09-06T18:15:24.577Z,5.27
2017-09-06T18:17:50.615Z,6.40
2017-09-06T18:20:16.650Z,6.27
2017-09-06T18:22:42.711Z,5.90
2017-09-06T18:25:08.749Z,5.90
2017-09-06T18:27:34.814Z,5.20
2017-09-06T18:30:00.858Z,5.00
2017-09-06T18:32:26.894Z,5.43
2017-09-06T18:34:52.949Z,5.50
2017-09-06T18:37:19.009Z,5.27
2017-09-06T18:39:45.125Z,5.50
2017-09-06T18:42:11.161Z,5.90
2017-09-06T18:44:37.211Z,5.50
2017-09-06T18:47:03.280Z,5.40
2017-09-06T18:49:29.310Z,6.03
2017-09-06T18:51:55.389Z,4.13
2017-09-06T18:54:21.449Z,5.37
2017-09-06T18:56:47.516Z,5.23
2017-09-06T18:59:13.585Z,4.80
2017-09-06T19:01:41.405Z,5.03
2017-09-06T19:04:09.216Z,6.40
2017-09-06T19:06:37.052Z,5.73
2017-09-06T19:09:04.892Z,5.27
2017-09-06T19:11:32.738Z,6.40
2017-09-06T19:14:00.580Z,3.93
2017-09-06T19:16:28.419Z,4.93
2017-09-06T19:18:56.257Z,4.47
2017-09-06T19:21:24.069Z,5.33
2017-09-06T19:23:51.937Z,7.40
2017-09-06T19:26:19.769Z,5.67
2017-09-06T19:28:47.574Z,5.30
2017-09-06T19:31:13.644Z,4.60
2017-09-06T19:33:39.722Z,5.03
2017-09-06T19:36:05.746Z,5.63
2017-09-06T19:38:31.851Z,4.90
2017-09-06T19:40:57.910Z,4.77
2017-09-06T19:43:23.934Z,6.30
2017-09-06T19:45:50.016Z,4.97
2017-09-06T19:48:16.048Z,5.63
2017-09-06T19:50:42.179Z,4.70
2017-09-06T19:53:08.231Z,5.40
2017-09-06T19:55:34.279Z,4.40
2017-09-06T19:58:00.547Z,4.90
2017-09-06T20:00:26.635Z,4.97
2017-09-06T20:02:52.705Z,5.90
2017-09-06T20:05:18.866Z,5.20
2017-09-06T20:07:44.981Z,5.30
2017-09-06T20:10:11.044Z,3.97
2017-09-06T20:12:37.095Z,4.60
2017-09-06T20:15:03.147Z,4.77
2017-09-06T20:17:29.182Z,3.37
2017-09-06T20:19:55.240Z,5.97
2017-09-06T20:22:21.312Z,3.40
2017-09-06T20:24:47.366Z,4.90
2017-09-06T20:27:13.806Z,4.40
2017-09-06T20:29:39.846Z,4.37
2017-09-06T20:32:05.941Z,4.10
2017-09-06T20:34:32.132Z,3.90
2017-09-06T20:36:58.196Z,4.20
2017-09-06T20:39:24.275Z,4.43
2017-09-06T20:41:51.093Z,3.63
2017-09-06T20:44:17.158Z,3.73
2017-09-06T20:46:43.189Z,5.47
2017-09-06T20:49:09.249Z,4.30
2017-09-06T20:51:35.313Z,4.57
2017-09-06T20:54:01.370Z,4.60
2017-09-06T20:56:27.414Z,3.97
2017-09-06T20:58:53.470Z,3.90
2017-09-06T21:01:19.523Z,4.03
2017-09-06T21:03:45.614Z,4.60
2017-09-06T21:06:11.668Z,4.17
2017-09-06T21:08:37.692Z,4.70
2017-09-06T21:11:03.752Z,3.83
2017-09-06T21:13:29.787Z,5.93
2017-09-06T21:15:55.838Z,5.43
2017-09-06T21:18:21.884Z,4.40
2017-09-06T21:20:47.966Z,4.00
2017-09-06T21:23:14.014Z,4.63
2017-09-06T21:25:40.053Z,3.90
2017-09-06T21:28:06.106Z,3.97
2017-09-06T21:30:32.583Z,4.10
2017-09-06T21:32:58.738Z,4.37
2017-09-06T21:35:24.835Z,4.80
2017-09-06T21:37:50.920Z,4.80
2017-09-06T21:40:16.985Z,4.27
2017-09-06T21:42:43.285Z,3.87
2017-09-06T21:45:09.415Z,4.10
2017-09-06T21:47:35.500Z,3.77
2017-09-06T21:50:01.629Z,4.00
2017-09-06T21:52:27.705Z,4.47
2017-09-06T21:54:53.744Z,4.33
2017-09-06T21:57:19.799Z,4.10
2017-09-06T21:59:45.830Z,3.67
2017-09-06T22:02:11.896Z,4.70
2017-09-06T22:04:38.170Z,4.10
2017-09-06T22:07:05.012Z,5.13
2017-09-06T22:09:31.607Z,4.67
2017-09-06T22:11:58.529Z,4.33
2017-09-06T22:14:25.167Z,4.80
2017-09-06T22:16:52.289Z,5.13
2017-09-06T22:19:19.188Z,4.97
2017-09-06T22:21:45.922Z,3.50
2017-09-06T22:24:12.987Z,4.10
2017-09-06T22:26:40.070Z,3.83
2017-09-06T22:29:48.754Z,4.27
2017-09-06T22:32:15.918Z,4.43
2017-09-06T22:34:42.951Z,5.17
2017-09-06T22:37:10.020Z,7.80
2017-09-06T22:39:37.189Z,4.37
2017-09-06T22:42:06.433Z,5.00
2017-09-06T22:44:42.260Z,5.47
2017-09-06T22:47:09.952Z,3.17
2017-09-06T22:49:36.017Z,3.80
2017-09-06T22:52:02.798Z,3.97
2017-09-06T22:54:29.174Z,3.90
2017-09-06T22:56:56.297Z,4.20
2017-09-06T22:59:22.406Z,3.37
2017-09-06T23:01:48.485Z,4.17
2017-09-06T23:04:15.656Z,4.20
2017-09-06T23:06:43.657Z,4.90
2017-09-06T23:09:11.492Z,4.60
2017-09-06T23:11:39.333Z,5.27
2017-09-06T23:14:06.369Z,4.73
2017-09-06T23:16:34.139Z,5.63
2017-09-06T23:19:01.431Z,4.70
2017-09-06T23:21:28.513Z,6.70
2017-09-06T23:23:55.826Z,5.07
2017-09-06T23:26:23.559Z,5.93
2017-09-06T23:28:50.734Z,6.43
2017-09-06T23:31:17.825Z,5.97
2017-09-06T23:33:44.479Z,6.43
2017-09-06T23:36:11.711Z,6.60
2017-09-06T23:38:38.719Z,5.67
2017-09-06T23:41:05.640Z,6.87
2017-09-06T23:43:33.140Z,6.10
2017-09-06T23:45:59.421Z,7.50
2017-09-06T23:48:25.465Z,5.63
2017-09-06T23:50:51.517Z,6.70
2017-09-06T23:53:17.545Z,6.23
2017-09-06T23:55:43.591Z,6.77
2017-09-06T23:58:09.676Z,5.17
